createdAt,value
2019-03-06T18:28:22.195Z,49.65
2019-03-06T18:30:53.329Z,57.73
2019-03-06T18:33:24.565Z,54.90
2019-03-06T18:36:13.048Z,64.77
2019-03-06T18:38:44.260Z,46.92
2019-03-06T18:41:15.440Z,58.60
2019-03-06T18:43:50.783Z,70.55
2019-03-06T18:46:21.816Z,50.98
2019-03-06T18:48:53.110Z,50.43
2019-03-06T18:51:24.238Z,54.10
2019-03-06T18:53:55.519Z,53.95
2019-03-06T18:56:26.667Z,62.98
2019-03-06T18:58:59.005Z,70.42
2019-03-06T19:01:30.775Z,71.92
2019-03-06T19:04:01.886Z,63.15
2019-03-06T19:06:33.099Z,56.53
2019-03-06T19:09:05.753Z,59.13
2019-03-06T19:11:38.359Z,49.40
2019-03-06T19:14:09.614Z,45.75
2019-03-06T19:16:40.831Z,36.88
2019-03-06T19:19:11.924Z,45.15
2019-03-06T19:21:43.054Z,42.00
2019-03-06T19:24:14.049Z,56.83
2019-03-06T19:26:45.159Z,34.15
2019-03-06T19:29:16.399Z,36.68
2019-03-06T19:31:47.604Z,39.58
2019-03-06T19:34:18.790Z,35.65
2019-03-06T19:36:50.072Z,39.18
2019-03-06T19:39:22.410Z,39.35
2019-03-06T19:41:53.753Z,37.95
2019-03-06T19:44:25.010Z,36.40
2019-03-06T19:46:56.042Z,28.42
2019-03-06T19:49:27.180Z,37.17
2019-03-06T19:51:58.524Z,31.77
2019-03-06T19:54:29.666Z,30.10
2019-03-06T19:57:00.700Z,30.37
2019-03-06T19:59:31.901Z,33.18
2019-03-06T20:02:03.088Z,25.97
2019-03-06T20:04:34.343Z,35.75
2019-03-06T20:07:05.463Z,23.55
2019-03-06T20:09:36.451Z,42.62
2019-03-06T20:12:08.642Z,28.57
2019-03-06T20:14:40.037Z,26.05
2019-03-06T20:17:11.139Z,34.00
2019-03-06T20:19:42.290Z,29.20
2019-03-06T20:22:13.288Z,32.55
2019-03-06T20:24:45.709Z,30.30
2019-03-06T20:27:18.061Z,40.65
2019-03-06T20:29:49.042Z,32.08
2019-03-06T20:32:20.026Z,27.37
2019-03-06T20:34:51.429Z,36.20
2019-03-06T20:37:22.588Z,34.40
2019-03-06T20:39:54.620Z,31.97
2019-03-06T20:42:25.584Z,37.45
2019-03-06T20:44:56.742Z,31.82
2019-03-06T20:47:29.450Z,34.25
2019-03-06T20:50:00.583Z,31.12
2019-03-06T20:52:31.624Z,26.93
2019-03-06T20:55:02.745Z,47.08
2019-03-06T20:57:33.789Z,36.17
2019-03-06T21:00:10.299Z,28.00
2019-03-06T21:02:41.339Z,35.28
2019-03-06T21:05:12.344Z,30.57
2019-03-06T21:07:45.210Z,29.45
2019-03-06T21:10:18.660Z,31.47
2019-03-06T21:12:49.621Z,29.07
2019-03-06T21:15:21.773Z,31.15
2019-03-06T21:17:52.769Z,34.60
2019-03-06T21:20:24.428Z,23.32
2019-03-06T21:22:55.611Z,23.85
2019-03-06T21:25:26.968Z,25.80
2019-03-06T21:27:57.943Z,34.23
2019-03-06T21:30:33.818Z,33.90
2019-03-06T21:33:04.860Z,41.50
2019-03-06T21:35:35.838Z,55.43
2019-03-06T21:38:06.874Z,45.17
2019-03-06T21:40:37.915Z,36.23
2019-03-06T21:43:08.887Z,34.95
2019-03-06T21:45:40.013Z,22.42
2019-03-06T21:48:11.055Z,23.25
2019-03-06T21:50:42.215Z,20.40
2019-03-06T21:53:13.684Z,23.62
2019-03-06T21:55:48.581Z,19.02
2019-03-06T21:58:20.892Z,22.67
2019-03-06T22:01:00.380Z,25.15
2019-03-06T22:03:34.068Z,19.73
2019-03-06T22:06:05.250Z,19.30
2019-03-06T22:08:36.290Z,25.20
2019-03-06T22:11:07.315Z,20.15
2019-03-06T22:13:38.316Z,25.55
2019-03-06T22:16:09.520Z,25.25
2019-03-06T22:18:40.610Z,30.92
2019-03-06T22:21:11.624Z,32.40
2019-03-06T22:23:43.671Z,27.10
2019-03-06T22:26:14.791Z,20.65
2019-03-06T22:28:47.116Z,13.53
2019-03-06T22:31:17.992Z,22.75
2019-03-06T22:33:49.031Z,36.90
2019-03-06T22:36:20.066Z,15.85
2019-03-06T22:38:51.108Z,18.37
2019-03-06T22:41:22.324Z,25.08
2019-03-06T22:43:54.402Z,26.93
2019-03-06T22:46:25.420Z,19.10
2019-03-06T22:48:56.380Z,18.92
2019-03-06T22:51:30.106Z,19.90
2019-03-06T22:54:01.429Z,17.92
2019-03-06T22:59:34.827Z,14.98
2019-03-06T23:02:07.654Z,15.08
2019-03-06T23:05:06.528Z,16.42
2019-03-06T23:07:53.041Z,23.10
2019-03-06T23:10:24.083Z,23.02
2019-03-06T23:12:58.748Z,19.75
2019-03-06T23:15:28.013Z,21.97
2019-03-06T23:18:00.282Z,21.90
2019-03-06T23:20:31.322Z,17.15
2019-03-06T23:23:02.366Z,19.92
2019-03-06T23:25:33.412Z,21.77
2019-03-06T23:28:04.560Z,19.57
2019-03-06T23:30:35.899Z,18.80
2019-03-06T23:33:06.952Z,19.12
2019-03-06T23:35:37.974Z,14.68
2019-03-06T23:38:08.957Z,19.37
2019-03-06T23:40:39.896Z,17.25
2019-03-06T23:43:11.055Z,15.32
2019-03-06T23:45:42.045Z,19.87
2019-03-06T23:48:13.020Z,17.25
2019-03-06T23:50:44.127Z,17.35
2019-03-06T23:53:15.193Z,16.87
2019-03-06T23:55:46.288Z,21.97
2019-03-06T23:58:17.327Z,17.55
